Time;durP1;ratioP1;P1;durP2;ratioP2;P2;SDS_P1;SDS_P2;PMS_P1;PMS_P2;Temp;Humidity;BMP_temperature;BMP_pressure;BME280_temperature;BME280_humidity;BME280_pressure;Samples;Min_cycle;Max_cycle;Signal;HPM_P1;HPM_P2
2023/10/10 00:02:18;;;;;;;19.48;10.45;;;;;;;;;;5055156;28;20104;-68
2023/10/10 00:04:47;;;;;;;19.42;10.40;;;;;;;;;;5055524;28;20044;-68
2023/10/10 00:07:14;;;;;;;20.88;10.82;;;;;;;;;;5037063;28;20115;-68
2023/10/10 00:09:40;;;;;;;18.48;10.15;;;;;;;;;;5055099;28;20103;-68
2023/10/10 00:12:06;;;;;;;21.20;10.13;;;;;;;;;;5054774;28;20068;-68
2023/10/10 00:14:32;;;;;;;24.38;10.68;;;;;;;;;;5054890;28;20086;-67
2023/10/10 00:16:59;;;;;;;20.05;11.02;;;;;;;;;;5054797;28;20025;-67
2023/10/10 00:19:44;;;;;;;18.42;10.57;;;;;;;;;;5054915;28;20044;-68
2023/10/10 00:22:09;;;;;;;19.15;11.00;;;;;;;;;;5054523;28;20017;-68
2023/10/10 00:24:35;;;;;;;20.92;9.77;;;;;;;;;;5054621;28;20038;-68
2023/10/10 00:27:12;;;;;;;20.08;10.38;;;;;;;;;;5054707;28;20170;-68
2023/10/10 00:29:40;;;;;;;18.50;10.30;;;;;;;;;;5036861;28;20159;-68
2023/10/10 00:32:13;;;;;;;21.75;10.85;;;;;;;;;;5054581;28;20051;-68
2023/10/10 00:34:38;;;;;;;22.20;9.82;;;;;;;;;;5054692;28;20020;-67
2023/10/10 00:37:13;;;;;;;16.02;9.05;;;;;;;;;;5054798;28;20021;-67
2023/10/10 00:39:38;;;;;;;17.23;9.65;;;;;;;;;;5036601;28;20017;-68
2023/10/10 00:42:05;;;;;;;22.10;9.95;;;;;;;;;;5054217;28;20078;-68
2023/10/10 00:44:31;;;;;;;20.40;9.50;;;;;;;;;;5054014;28;20024;-68
2023/10/10 00:46:58;;;;;;;14.52;9.30;;;;;;;;;;5036231;28;20017;-68
2023/10/10 00:49:25;;;;;;;24.23;9.20;;;;;;;;;;5054310;28;20108;-67
2023/10/10 00:52:02;;;;;;;23.92;10.35;;;;;;;;;;5054114;28;20025;-67
2023/10/10 00:54:31;;;;;;;20.45;9.25;;;;;;;;;;5054187;28;20082;-66
2023/10/10 00:56:57;;;;;;;18.20;9.23;;;;;;;;;;5036268;28;20040;-67
2023/10/10 00:59:34;;;;;;;14.75;9.38;;;;;;;;;;5054046;28;20017;-68
2023/10/10 01:02:01;;;;;;;18.95;9.60;;;;;;;;;;5054190;28;20046;-67
2023/10/10 01:04:38;;;;;;;17.98;9.13;;;;;;;;;;5054218;28;20104;-67
2023/10/10 01:07:06;;;;;;;17.05;9.13;;;;;;;;;;5054218;28;20368;-68
2023/10/10 01:09:33;;;;;;;18.02;9.02;;;;;;;;;;5053818;28;20049;-68
2023/10/10 01:11:59;;;;;;;20.45;9.50;;;;;;;;;;5032883;28;20049;-68
2023/10/10 01:14:26;;;;;;;19.40;9.40;;;;;;;;;;5032647;28;20014;-67
2023/10/10 01:16:57;;;;;;;15.82;9.30;;;;;;;;;;5033813;28;20022;-67
2023/10/10 01:19:27;;;;;;;19.65;9.80;;;;;;;;;;5033824;28;20025;-68
2023/10/10 01:21:57;;;;;;;19.25;10.18;;;;;;;;;;5033820;28;20457;-68
2023/10/10 01:24:23;;;;;;;21.38;10.05;;;;;;;;;;5033904;28;20013;-68
2023/10/10 01:26:51;;;;;;;20.60;9.95;;;;;;;;;;5033873;28;20014;-68
2023/10/10 01:31:52;;;;;;;20.92;9.77;;;;;;;;;;5034282;28;20029;-68
2023/10/10 01:34:30;;;;;;;21.05;10.48;;;;;;;;;;5033221;28;20026;-68
2023/10/10 01:37:20;;;;;;;24.38;11.70;;;;;;;;;;5033862;28;20024;-67
2023/10/10 01:39:51;;;;;;;22.55;11.60;;;;;;;;;;5034067;28;20021;-68
2023/10/10 01:42:18;;;;;;;21.35;12.00;;;;;;;;;;5033915;28;20453;-68
2023/10/10 01:44:43;;;;;;;32.15;11.82;;;;;;;;;;5036100;28;20017;-67
2023/10/10 01:47:26;;;;;;;19.92;11.35;;;;;;;;;;5043073;28;20045;-68
2023/10/10 01:49:53;;;;;;;22.02;11.57;;;;;;;;;;5043924;28;20085;-68
2023/10/10 01:52:21;;;;;;;20.15;12.15;;;;;;;;;;5043489;28;20063;-68
2023/10/10 01:54:52;;;;;;;28.15;13.38;;;;;;;;;;5042279;28;20040;-67
2023/10/10 01:57:24;;;;;;;32.40;14.70;;;;;;;;;;5041753;28;20079;-68
2023/10/10 01:59:51;;;;;;;29.08;15.10;;;;;;;;;;5042268;28;20077;-67
2023/10/10 02:02:17;;;;;;;26.10;14.23;;;;;;;;;;5042368;28;20021;-67
2023/10/10 02:04:43;;;;;;;25.02;14.88;;;;;;;;;;5042399;28;20020;-67
2023/10/10 02:07:53;;;;;;;35.30;17.33;;;;;;;;;;5041821;28;20013;-67
2023/10/10 02:10:00;;;;;;;40.10;17.73;;;;;;;;;;5042524;28;20029;-67
2023/10/10 02:12:26;;;;;;;38.35;17.70;;;;;;;;;;5068406;28;20025;-69
2023/10/10 02:14:54;;;;;;;33.58;17.92;;;;;;;;;;5072383;28;20047;-68
2023/10/10 02:17:22;;;;;;;34.83;19.23;;;;;;;;;;5072799;28;20085;-69
2023/10/10 02:19:57;;;;;;;42.72;19.65;;;;;;;;;;5055841;28;20081;-70
2023/10/10 02:22:23;;;;;;;37.03;19.13;;;;;;;;;;5072747;28;20017;-69
2023/10/10 02:25:31;;;;;;;41.53;20.10;;;;;;;;;;5073174;28;20032;-68
2023/10/10 02:27:54;;;;;;;43.10;21.52;;;;;;;;;;5066299;28;20500;-68
2023/10/10 02:30:34;;;;;;;43.00;21.73;;;;;;;;;;5058825;28;20017;-67
2023/10/10 02:32:59;;;;;;;47.70;22.92;;;;;;;;;;5056597;28;20112;-67
2023/10/10 02:35:27;;;;;;;51.75;24.83;;;;;;;;;;5056019;28;20031;-67
2023/10/10 02:37:54;;;;;;;50.70;24.85;;;;;;;;;;5055409;28;20017;-67
2023/10/10 02:40:30;;;;;;;52.80;26.73;;;;;;;;;;5054814;28;20474;-68
2023/10/10 02:45:44;;;;;;;54.83;24.95;;;;;;;;;;5054687;28;20159;-68
2023/10/10 02:48:10;;;;;;;51.20;26.13;;;;;;;;;;5057921;28;20050;-67
2023/10/10 02:50:41;;;;;;;54.90;25.70;;;;;;;;;;5057747;28;20021;-67
2023/10/10 02:53:08;;;;;;;56.95;25.95;;;;;;;;;;5057306;28;20363;-69
2023/10/10 02:55:40;;;;;;;55.75;25.48;;;;;;;;;;5038763;28;20017;-66
2023/10/10 02:58:20;;;;;;;62.85;26.58;;;;;;;;;;5056649;28;20020;-68
2023/10/10 03:00:47;;;;;;;58.00;26.17;;;;;;;;;;5056371;28;20415;-68
2023/10/10 03:03:18;;;;;;;58.88;26.08;;;;;;;;;;5038565;28;20078;-67
2023/10/10 03:05:54;;;;;;;61.00;25.13;;;;;;;;;;5056008;28;20017;-67
2023/10/10 03:08:36;;;;;;;56.95;24.38;;;;;;;;;;5056450;28;20016;-68
2023/10/10 03:11:05;;;;;;;54.03;25.48;;;;;;;;;;5038377;28;20400;-67
2023/10/10 03:13:35;;;;;;;51.80;24.60;;;;;;;;;;5056269;28;20356;-66
2023/10/10 03:29:49;;;;;;;52.28;25.02;;;;;;;;;;5022128;28;20029;-68
2023/10/10 03:32:47;;;;;;;52.75;25.35;;;;;;;;;;5038189;28;20013;-68
2023/10/10 03:35:33;;;;;;;48.28;24.85;;;;;;;;;;5055105;28;20360;-68
2023/10/10 03:38:24;;;;;;;51.08;24.70;;;;;;;;;;5055781;28;20025;-67
2023/10/10 05:25:12;;;;;;;56.63;28.15;;;;;;;;;;5053714;28;20044;-67
2023/10/10 05:27:41;;;;;;;66.00;29.30;;;;;;;;;;5053815;28;20155;-68
2023/10/10 05:30:23;;;;;;;64.20;29.17;;;;;;;;;;5035663;28;20052;-68
2023/10/10 05:33:03;;;;;;;68.80;29.33;;;;;;;;;;5053516;28;20370;-68
2023/10/10 05:35:40;;;;;;;59.97;29.58;;;;;;;;;;5053550;28;20457;-67
2023/10/10 05:38:09;;;;;;;60.22;29.83;;;;;;;;;;5053463;28;20025;-67
2023/10/10 05:40:34;;;;;;;65.93;30.67;;;;;;;;;;5035349;28;20468;-68
2023/10/10 05:43:00;;;;;;;63.47;31.55;;;;;;;;;;5053425;28;20017;-67
2023/10/10 05:45:25;;;;;;;69.18;30.98;;;;;;;;;;5035555;28;20017;-68
2023/10/10 05:47:50;;;;;;;66.63;31.70;;;;;;;;;;5053218;28;20044;-68
2023/10/10 05:50:18;;;;;;;67.65;31.33;;;;;;;;;;5053283;28;20039;-67
2023/10/10 05:52:46;;;;;;;64.93;32.15;;;;;;;;;;5053562;28;20021;-68
2023/10/10 05:55:11;;;;;;;67.30;31.95;;;;;;;;;;5053400;28;20096;-68
2023/10/10 05:57:37;;;;;;;61.63;31.73;;;;;;;;;;5035373;28;20112;-68
2023/10/10 06:00:08;;;;;;;73.03;33.15;;;;;;;;;;5053422;28;20252;-67
2023/10/10 06:02:34;;;;;;;65.65;32.80;;;;;;;;;;5053244;28;20017;-68
2023/10/10 06:04:59;;;;;;;69.30;31.80;;;;;;;;;;5035539;28;20009;-68
2023/10/10 06:07:24;;;;;;;71.20;33.00;;;;;;;;;;5035418;28;20017;-67
2023/10/10 06:09:51;;;;;;;67.43;31.40;;;;;;;;;;5052860;28;20269;-68
2023/10/10 06:12:18;;;;;;;66.55;31.60;;;;;;;;;;5052771;28;20123;-68
2023/10/10 06:14:43;;;;;;;64.95;30.95;;;;;;;;;;5053533;28;20024;-68
2023/10/10 06:17:09;;;;;;;61.13;31.00;;;;;;;;;;5053354;28;20017;-67
2023/10/10 06:19:34;;;;;;;64.30;32.10;;;;;;;;;;5053153;28;20260;-68
2023/10/10 06:22:02;;;;;;;66.50;31.63;;;;;;;;;;5037594;28;20739;-67
2023/10/10 06:24:27;;;;;;;58.95;31.48;;;;;;;;;;5055873;28;20015;-67
2023/10/10 06:27:00;;;;;;;57.13;30.50;;;;;;;;;;5055677;28;20610;-68
2023/10/10 06:29:26;;;;;;;63.20;31.48;;;;;;;;;;5055719;28;20013;-67
2023/10/10 06:31:56;;;;;;;59.10;30.63;;;;;;;;;;5055655;28;20025;-70
2023/10/10 06:34:22;;;;;;;56.80;29.77;;;;;;;;;;5055609;28;20078;-68
2023/10/10 06:36:48;;;;;;;69.38;31.05;;;;;;;;;;5055740;28;20025;-68
2023/10/10 06:41:50;;;;;;;55.97;30.33;;;;;;;;;;5056982;28;20025;-68
2023/10/10 06:44:31;;;;;;;58.08;30.13;;;;;;;;;;5038597;28;20100;-69
2023/10/10 06:46:57;;;;;;;53.10;30.00;;;;;;;;;;5038775;28;20028;-68
2023/10/10 06:49:23;;;;;;;56.28;29.83;;;;;;;;;;5056645;28;20029;-67
2023/10/10 06:51:49;;;;;;;52.88;29.25;;;;;;;;;;5056811;28;20092;-67
2023/10/10 06:54:27;;;;;;;58.33;29.95;;;;;;;;;;5056386;28;20102;-68
2023/10/10 06:57:17;;;;;;;56.60;29.08;;;;;;;;;;5038578;28;20162;-67
2023/10/10 06:59:40;;;;;;;55.30;29.20;;;;;;;;;;5055957;28;20486;-67
2023/10/10 07:02:27;;;;;;;56.87;28.87;;;;;;;;;;5056251;28;20099;-68
2023/10/10 07:04:54;;;;;;;48.05;28.27;;;;;;;;;;5055676;28;20271;-67
2023/10/10 07:07:20;;;;;;;59.63;29.58;;;;;;;;;;5055934;28;20095;-67
2023/10/10 07:09:45;;;;;;;50.95;28.40;;;;;;;;;;5055706;28;20068;-67
2023/10/10 07:12:11;;;;;;;50.90;28.50;;;;;;;;;;5056077;28;20072;-67
2023/10/10 07:14:53;;;;;;;56.42;29.08;;;;;;;;;;5038316;28;20491;-67
2023/10/10 07:17:21;;;;;;;56.78;30.30;;;;;;;;;;5056065;28;20025;-67
2023/10/10 07:22:35;;;;;;;52.72;28.80;;;;;;;;;;5056420;28;20025;-68
2023/10/10 07:25:07;;;;;;;54.05;28.67;;;;;;;;;;5056067;28;20069;-68
2023/10/10 07:27:32;;;;;;;48.95;29.40;;;;;;;;;;5055985;28;20017;-67
2023/10/10 07:29:58;;;;;;;50.47;28.75;;;;;;;;;;5038156;28;20380;-67
2023/10/10 07:32:29;;;;;;;47.00;28.23;;;;;;;;;;5055840;28;20029;-67
2023/10/10 07:34:54;;;;;;;47.20;27.73;;;;;;;;;;5055995;28;20259;-67
2023/10/10 07:37:22;;;;;;;51.58;28.10;;;;;;;;;;5037732;28;20502;-67
2023/10/10 07:42:34;;;;;;;48.08;26.80;;;;;;;;;;5055493;28;20105;-69
2023/10/10 07:45:13;;;;;;;46.28;26.42;;;;;;;;;;5055599;28;20360;-67
2023/10/10 07:48:38;;;;;;;48.83;26.85;;;;;;;;;;5037712;28;20021;-67
2023/10/10 07:50:27;;;;;;;47.58;26.27;;;;;;;;;;5055289;28;20057;-68
2023/10/10 07:52:53;;;;;;;44.15;26.20;;;;;;;;;;5055221;28;20530;-68
2023/10/10 07:55:19;;;;;;;41.20;24.48;;;;;;;;;;5055424;28;20025;-68
2023/10/10 07:57:59;;;;;;;46.10;26.15;;;;;;;;;;5055466;28;20024;-68
2023/10/10 08:00:34;;;;;;;43.78;24.02;;;;;;;;;;5037235;28;20029;-67
2023/10/10 08:03:00;;;;;;;37.45;23.60;;;;;;;;;;5037558;28;20028;-67
2023/10/10 08:05:29;;;;;;;42.17;24.08;;;;;;;;;;5055187;28;20017;-67
2023/10/10 08:07:54;;;;;;;39.28;22.73;;;;;;;;;;5055400;28;20021;-67
2023/10/10 08:10:38;;;;;;;42.33;22.63;;;;;;;;;;5055092;28;20103;-68
2023/10/10 08:13:14;;;;;;;37.63;22.25;;;;;;;;;;5054805;28;20271;-68
2023/10/10 08:18:41;;;;;;;38.40;21.65;;;;;;;;;;5055158;28;20032;-67
2023/10/10 08:23:31;;;;;;;38.33;21.67;;;;;;;;;;5054829;28;20407;-67
2023/10/10 08:25:57;;;;;;;34.65;20.58;;;;;;;;;;5054798;28;20021;-68
2023/10/10 08:28:22;;;;;;;36.47;20.25;;;;;;;;;;5054792;28;20013;-69
2023/10/10 08:30:48;;;;;;;35.80;19.48;;;;;;;;;;5054901;28;20017;-68
2023/10/10 08:33:13;;;;;;;36.92;19.45;;;;;;;;;;5036700;28;20035;-69
2023/10/10 08:35:39;;;;;;;34.72;19.77;;;;;;;;;;5054691;28;20021;-67
2023/10/10 08:38:07;;;;;;;29.30;18.23;;;;;;;;;;5054398;28;20456;-68
2023/10/10 08:40:36;;;;;;;30.48;18.90;;;;;;;;;;5036905;28;20259;-68
2023/10/10 08:43:07;;;;;;;32.40;19.08;;;;;;;;;;5036525;28;20017;-69
2023/10/10 08:45:39;;;;;;;35.28;18.70;;;;;;;;;;5054313;28;20009;-69
2023/10/10 08:48:09;;;;;;;29.88;19.38;;;;;;;;;;5054600;28;20100;-68
2023/10/10 08:50:37;;;;;;;30.17;18.85;;;;;;;;;;5054326;28;20025;-68
2023/10/10 08:53:05;;;;;;;29.92;17.80;;;;;;;;;;5054302;28;20488;-69
2023/10/10 08:55:34;;;;;;;32.08;18.52;;;;;;;;;;5054304;28;20108;-69
2023/10/10 08:57:59;;;;;;;30.42;18.05;;;;;;;;;;5054119;28;20434;-68
2023/10/10 09:00:27;;;;;;;30.20;18.30;;;;;;;;;;5054029;28;20041;-69
2023/10/10 09:02:53;;;;;;;29.30;16.52;;;;;;;;;;5054010;28;20025;-68
2023/10/10 09:05:19;;;;;;;28.23;16.98;;;;;;;;;;5054272;28;20021;-68
2023/10/10 09:07:46;;;;;;;22.83;16.23;;;;;;;;;;5053827;28;20071;-69
2023/10/10 09:10:14;;;;;;;29.10;16.77;;;;;;;;;;5053903;28;20468;-69
2023/10/10 09:12:58;;;;;;;28.27;16.60;;;;;;;;;;5035910;28;20408;-68
2023/10/10 09:15:24;;;;;;;26.85;16.52;;;;;;;;;;5035860;28;20124;-68
2023/10/10 09:17:55;;;;;;;31.88;16.60;;;;;;;;;;5053818;28;20097;-68
2023/10/10 09:20:30;;;;;;;23.85;16.23;;;;;;;;;;5035879;28;20031;-68
2023/10/10 09:23:04;;;;;;;35.25;16.50;;;;;;;;;;5053908;28;20027;-69
2023/10/10 09:25:41;;;;;;;24.98;15.65;;;;;;;;;;5053947;28;20086;-68
2023/10/10 09:28:10;;;;;;;21.88;15.30;;;;;;;;;;5053533;28;20017;-69
2023/10/10 09:30:40;;;;;;;23.27;16.05;;;;;;;;;;5053830;28;20024;-68
2023/10/10 09:36:08;;;;;;;28.83;15.30;;;;;;;;;;5053658;28;20028;-68
2023/10/10 09:38:36;;;;;;;22.65;15.18;;;;;;;;;;5053522;28;20464;-68
2023/10/10 09:44:19;;;;;;;29.52;15.85;;;;;;;;;;5053671;28;20070;-68
2023/10/10 09:46:59;;;;;;;26.60;16.10;;;;;;;;;;5053218;28;20025;-68
2023/10/10 09:49:43;;;;;;;25.00;15.90;;;;;;;;;;5035813;28;20033;-68
2023/10/10 09:55:02;;;;;;;24.92;15.07;;;;;;;;;;5053500;28;20090;-68
2023/10/10 09:57:28;;;;;;;27.50;16.33;;;;;;;;;;5056868;28;20017;-68
2023/10/10 09:59:56;;;;;;;27.73;16.10;;;;;;;;;;5057725;28;20075;-68
2023/10/10 10:02:40;;;;;;;26.25;16.20;;;;;;;;;;5057547;28;20074;-68
2023/10/10 10:05:13;;;;;;;28.35;16.33;;;;;;;;;;5057222;28;20021;-68
2023/10/10 10:07:56;;;;;;;30.73;16.42;;;;;;;;;;5057244;28;20013;-68
2023/10/10 10:10:35;;;;;;;31.02;17.08;;;;;;;;;;5057507;28;20013;-68
2023/10/10 10:13:19;;;;;;;28.27;16.30;;;;;;;;;;5055784;28;20549;-68
2023/10/10 10:16:25;;;;;;;27.48;17.20;;;;;;;;;;5038001;28;20086;-69
2023/10/10 10:18:52;;;;;;;30.10;16.02;;;;;;;;;;4974636;28;20394;-69
2023/10/10 10:21:19;;;;;;;34.20;16.95;;;;;;;;;;4975067;28;20415;-68
2023/10/10 10:23:47;;;;;;;28.48;16.25;;;;;;;;;;5015197;28;20033;-68
2023/10/10 10:26:21;;;;;;;30.90;16.75;;;;;;;;;;5055673;28;20384;-68
2023/10/10 10:28:56;;;;;;;31.13;16.80;;;;;;;;;;5055726;28;20515;-68
2023/10/10 10:31:30;;;;;;;27.65;16.90;;;;;;;;;;5055245;28;20025;-69
2023/10/10 10:34:10;;;;;;;33.70;16.80;;;;;;;;;;5055613;28;20436;-68
2023/10/10 10:36:42;;;;;;;27.40;16.92;;;;;;;;;;5037823;28;20017;-68
2023/10/10 10:39:22;;;;;;;28.08;16.33;;;;;;;;;;5055361;28;20527;-68
2023/10/10 10:41:53;;;;;;;25.42;15.82;;;;;;;;;;5055364;28;20092;-68
2023/10/10 10:47:50;;;;;;;25.63;15.70;;;;;;;;;;5055461;28;20048;-68
2023/10/10 10:50:29;;;;;;;27.70;16.55;;;;;;;;;;4994287;28;20029;-68
2023/10/10 10:53:06;;;;;;;30.65;15.77;;;;;;;;;;5055389;28;20020;-67
2023/10/10 10:55:31;;;;;;;29.30;17.00;;;;;;;;;;5055271;28;20028;-68
2023/10/10 11:01:00;;;;;;;26.70;16.45;;;;;;;;;;5055440;28;20078;-69
2023/10/10 11:03:33;;;;;;;30.58;17.63;;;;;;;;;;5037011;28;20040;-68
2023/10/10 11:05:59;;;;;;;27.33;17.23;;;;;;;;;;5054848;28;20020;-69
2023/10/10 11:08:51;;;;;;;27.75;16.20;;;;;;;;;;5054625;28;20037;-69
2023/10/10 11:11:24;;;;;;;29.38;16.13;;;;;;;;;;5000381;28;1057528;-69
2023/10/10 11:16:45;;;;;;;24.55;16.20;;;;;;;;;;5056314;28;20128;-69
2023/10/10 11:19:12;;;;;;;27.25;15.70;;;;;;;;;;5055819;28;20025;-68
2023/10/10 11:21:48;;;;;;;27.73;15.55;;;;;;;;;;5056159;28;20360;-69
2023/10/10 11:24:14;;;;;;;29.00;14.20;;;;;;;;;;5038064;28;20021;-68
2023/10/10 11:26:40;;;;;;;25.70;14.88;;;;;;;;;;5055809;28;20009;-69
2023/10/10 11:29:20;;;;;;;24.35;14.70;;;;;;;;;;5055792;28;20023;-68
2023/10/10 11:31:49;;;;;;;30.70;14.80;;;;;;;;;;5055649;28;20027;-68
2023/10/10 11:34:33;;;;;;;25.92;14.77;;;;;;;;;;5037810;28;20021;-68
2023/10/10 11:37:21;;;;;;;23.52;13.05;;;;;;;;;;5055596;28;20460;-67
2023/10/10 11:39:53;;;;;;;24.83;14.27;;;;;;;;;;5037774;28;20056;-68
2023/10/10 11:42:33;;;;;;;26.90;14.77;;;;;;;;;;5055427;28;20040;-68
2023/10/10 11:45:06;;;;;;;25.85;14.77;;;;;;;;;;5055908;28;20380;-69
2023/10/10 11:47:31;;;;;;;28.20;14.75;;;;;;;;;;5055381;28;20028;-68
2023/10/10 11:50:00;;;;;;;27.50;14.68;;;;;;;;;;5055448;28;20017;-69
2023/10/10 11:52:27;;;;;;;27.92;15.85;;;;;;;;;;5055018;28;20012;-69
2023/10/10 11:54:54;;;;;;;28.17;15.35;;;;;;;;;;5055148;28;20488;-68
2023/10/10 11:57:20;;;;;;;28.73;14.35;;;;;;;;;;5037427;28;20013;-68
2023/10/10 11:59:46;;;;;;;27.63;14.47;;;;;;;;;;5055294;28;20013;-68
2023/10/10 12:02:16;;;;;;;26.08;14.10;;;;;;;;;;5054907;28;20017;-68
2023/10/10 12:04:44;;;;;;;25.58;13.63;;;;;;;;;;5055060;28;20013;-67
2023/10/10 12:07:10;;;;;;;23.83;13.68;;;;;;;;;;5055121;28;20029;-68
2023/10/10 12:09:38;;;;;;;25.27;13.67;;;;;;;;;;5054961;28;20027;-68
2023/10/10 12:12:03;;;;;;;24.80;13.57;;;;;;;;;;5054810;28;20099;-68
2023/10/10 12:14:30;;;;;;;23.90;13.85;;;;;;;;;;5055346;28;20469;-68
2023/10/10 12:16:59;;;;;;;23.17;13.93;;;;;;;;;;5036959;28;20025;-68
2023/10/10 12:19:25;;;;;;;25.15;12.75;;;;;;;;;;5035883;28;20107;-68
2023/10/10 12:21:51;;;;;;;21.85;12.20;;;;;;;;;;5055102;28;20027;-68
2023/10/10 12:24:17;;;;;;;26.17;13.55;;;;;;;;;;5036905;28;20017;-68
2023/10/10 12:26:42;;;;;;;23.10;13.27;;;;;;;;;;5036732;28;20029;-68
2023/10/10 12:29:10;;;;;;;26.93;12.70;;;;;;;;;;5054515;28;20021;-68
2023/10/10 12:31:36;;;;;;;24.13;11.63;;;;;;;;;;5054721;28;20029;-68
2023/10/10 12:34:01;;;;;;;24.63;12.15;;;;;;;;;;5054783;28;20078;-68
2023/10/10 12:36:30;;;;;;;23.00;12.30;;;;;;;;;;5054586;28;20027;-68
2023/10/10 12:38:55;;;;;;;23.88;13.30;;;;;;;;;;5036314;28;20032;-68
2023/10/10 12:41:20;;;;;;;26.20;13.38;;;;;;;;;;5054463;28;20017;-68
2023/10/10 12:43:46;;;;;;;26.15;13.45;;;;;;;;;;5036756;28;20025;-68
2023/10/10 12:46:16;;;;;;;24.13;12.48;;;;;;;;;;5054035;28;20460;-69
2023/10/10 12:48:41;;;;;;;25.67;13.50;;;;;;;;;;5054386;28;20106;-68
2023/10/10 12:51:09;;;;;;;24.85;12.48;;;;;;;;;;5036320;28;20029;-69
2023/10/10 12:53:39;;;;;;;23.98;12.85;;;;;;;;;;5036551;28;20020;-68
2023/10/10 12:56:05;;;;;;;29.08;12.85;;;;;;;;;;5054147;28;20025;-68
2023/10/10 12:58:31;;;;;;;21.63;12.50;;;;;;;;;;5054075;28;20017;-68
2023/10/10 13:00:58;;;;;;;21.92;12.15;;;;;;;;;;5035789;28;20364;-69
2023/10/10 13:03:27;;;;;;;21.88;11.68;;;;;;;;;;5053616;28;20052;-69
2023/10/10 13:05:53;;;;;;;22.40;11.32;;;;;;;;;;5053667;28;20047;-70
2023/10/10 13:08:22;;;;;;;23.30;13.05;;;;;;;;;;5053685;28;20025;-69
2023/10/10 13:10:54;;;;;;;23.08;11.68;;;;;;;;;;5053211;28;20023;-69
2023/10/10 13:13:26;;;;;;;21.90;12.30;;;;;;;;;;5053861;28;20021;-68
2023/10/10 13:16:07;;;;;;;25.85;12.25;;;;;;;;;;5035682;28;20032;-68
2023/10/10 13:18:32;;;;;;;29.27;12.35;;;;;;;;;;5053590;28;20059;-69
2023/10/10 13:21:00;;;;;;;26.13;12.57;;;;;;;;;;5053844;28;20053;-69
2023/10/10 13:23:25;;;;;;;18.98;11.00;;;;;;;;;;5036193;28;20028;-67
2023/10/10 13:25:51;;;;;;;18.20;10.07;;;;;;;;;;5054098;28;20448;-68
2023/10/10 13:28:20;;;;;;;23.80;10.95;;;;;;;;;;5053753;28;20037;-68
2023/10/10 13:30:46;;;;;;;22.65;10.80;;;;;;;;;;5035525;28;20434;-68
2023/10/10 13:33:15;;;;;;;20.77;11.02;;;;;;;;;;5035846;28;20013;-68
2023/10/10 13:35:40;;;;;;;25.67;10.70;;;;;;;;;;5035806;28;20459;-68
2023/10/10 13:38:06;;;;;;;25.73;10.88;;;;;;;;;;5053531;28;20052;-69
2023/10/10 13:40:37;;;;;;;19.63;11.05;;;;;;;;;;5053582;28;20028;-70
2023/10/10 13:43:08;;;;;;;24.42;11.80;;;;;;;;;;5053585;28;20032;-69
2023/10/10 13:45:33;;;;;;;31.95;11.55;;;;;;;;;;5053159;28;20028;-69
2023/10/10 13:48:00;;;;;;;25.08;11.25;;;;;;;;;;5035141;28;20375;-69
2023/10/10 13:50:31;;;;;;;24.73;11.45;;;;;;;;;;5053125;28;20099;-69
2023/10/10 13:52:56;;;;;;;23.58;11.68;;;;;;;;;;5035339;28;20017;-69
2023/10/10 13:55:21;;;;;;;23.88;11.88;;;;;;;;;;5053079;28;20460;-69
2023/10/10 13:57:47;;;;;;;20.75;11.15;;;;;;;;;;5053016;28;20107;-68
2023/10/10 14:00:29;;;;;;;20.37;10.80;;;;;;;;;;5053483;28;20074;-69
2023/10/10 14:02:59;;;;;;;21.45;12.13;;;;;;;;;;5053415;28;20321;-69
2023/10/10 14:05:29;;;;;;;28.05;12.55;;;;;;;;;;5035383;28;20013;-69
2023/10/10 14:07:54;;;;;;;23.40;12.18;;;;;;;;;;5053245;28;20029;-68
2023/10/10 14:10:20;;;;;;;23.90;12.53;;;;;;;;;;5053167;28;20028;-68
2023/10/10 14:12:46;;;;;;;25.08;12.85;;;;;;;;;;5052886;28;20292;-69
2023/10/10 14:15:11;;;;;;;24.27;12.27;;;;;;;;;;5053272;28;20021;-68
2023/10/10 14:17:36;;;;;;;22.05;12.15;;;;;;;;;;5053091;28;20372;-68
2023/10/10 14:20:02;;;;;;;24.00;11.27;;;;;;;;;;5053077;28;20023;-69
2023/10/10 14:22:27;;;;;;;22.92;12.02;;;;;;;;;;5035301;28;20376;-68
2023/10/10 14:24:53;;;;;;;26.92;11.75;;;;;;;;;;5035167;28;20027;-69
2023/10/10 14:27:20;;;;;;;20.27;11.07;;;;;;;;;;5035359;28;20017;-68
2023/10/10 14:29:45;;;;;;;25.63;11.60;;;;;;;;;;5053168;28;20391;-68
2023/10/10 14:32:14;;;;;;;25.90;11.93;;;;;;;;;;5053149;28;20025;-68
2023/10/10 14:34:39;;;;;;;26.20;11.70;;;;;;;;;;5034900;28;20271;-67
2023/10/10 14:37:05;;;;;;;19.80;10.93;;;;;;;;;;5053121;28;20024;-68
2023/10/10 14:39:44;;;;;;;27.73;11.27;;;;;;;;;;5052772;28;20031;-68
2023/10/10 14:42:09;;;;;;;30.02;11.10;;;;;;;;;;5054117;28;20104;-68
2023/10/10 14:44:40;;;;;;;23.60;11.00;;;;;;;;;;5056749;28;20048;-67
2023/10/10 14:47:06;;;;;;;23.23;10.15;;;;;;;;;;5056550;28;20009;-73
2023/10/10 14:49:31;;;;;;;16.90;9.70;;;;;;;;;;5038733;28;20023;-73
2023/10/10 14:52:03;;;;;;;21.05;9.82;;;;;;;;;;5056696;28;20039;-72
2023/10/10 14:54:28;;;;;;;23.52;10.13;;;;;;;;;;5056498;28;20044;-72
2023/10/10 14:56:54;;;;;;;19.35;10.13;;;;;;;;;;5056699;28;20070;-71
2023/10/10 14:59:31;;;;;;;17.05;9.38;;;;;;;;;;5056709;28;20020;-73
2023/10/10 15:01:59;;;;;;;22.00;9.55;;;;;;;;;;5056378;28;20103;-73
2023/10/10 15:04:28;;;;;;;18.35;8.98;;;;;;;;;;5056390;28;20027;-73
2023/10/10 15:06:56;;;;;;;19.83;8.98;;;;;;;;;;5038284;28;20036;-72
2023/10/10 15:09:25;;;;;;;18.08;8.43;;;;;;;;;;5056351;28;20025;-72
2023/10/10 15:11:51;;;;;;;20.63;8.85;;;;;;;;;;5055902;28;20049;-72
2023/10/10 15:14:19;;;;;;;17.55;8.38;;;;;;;;;;5038071;28;20027;-72
2023/10/10 15:16:46;;;;;;;21.02;8.93;;;;;;;;;;5056224;28;20027;-72
2023/10/10 15:19:11;;;;;;;21.77;8.93;;;;;;;;;;5056167;28;20029;-72
2023/10/10 15:21:37;;;;;;;18.65;8.68;;;;;;;;;;5056020;28;20009;-72
2023/10/10 15:24:04;;;;;;;15.65;8.57;;;;;;;;;;5055956;28;20027;-72
2023/10/10 15:26:30;;;;;;;18.25;8.23;;;;;;;;;;5038078;28;20013;-72
2023/10/10 15:28:56;;;;;;;17.45;8.77;;;;;;;;;;5038035;28;20128;-73
2023/10/10 15:31:25;;;;;;;19.42;8.77;;;;;;;;;;5055852;28;20039;-73
2023/10/10 15:34:00;;;;;;;21.88;9.10;;;;;;;;;;5056202;28;20028;-72
2023/10/10 15:36:30;;;;;;;18.40;9.90;;;;;;;;;;5038216;28;20027;-71
2023/10/10 15:39:03;;;;;;;17.77;8.73;;;;;;;;;;5037749;28;20368;-72
2023/10/10 15:41:31;;;;;;;22.20;9.05;;;;;;;;;;5055523;28;20096;-72
2023/10/10 15:44:02;;;;;;;20.50;9.80;;;;;;;;;;5037751;28;20013;-72
2023/10/10 15:46:27;;;;;;;26.25;9.32;;;;;;;;;;5037629;28;20028;-72
2023/10/10 15:48:53;;;;;;;22.08;9.07;;;;;;;;;;5037752;28;20021;-72
2023/10/10 15:51:20;;;;;;;20.10;9.43;;;;;;;;;;5037894;28;20037;-73
2023/10/10 15:53:46;;;;;;;18.00;9.48;;;;;;;;;;5054379;28;20017;-72
2023/10/10 15:56:11;;;;;;;16.65;9.18;;;;;;;;;;5055359;28;20408;-72
2023/10/10 15:58:39;;;;;;;15.38;9.05;;;;;;;;;;5037375;28;20017;-72
2023/10/10 16:01:08;;;;;;;16.33;9.57;;;;;;;;;;5054069;28;20471;-73
2023/10/10 16:03:34;;;;;;;24.40;9.80;;;;;;;;;;5055209;28;20078;-72
2023/10/10 16:06:04;;;;;;;19.97;9.33;;;;;;;;;;5055166;28;20096;-73
2023/10/10 16:08:29;;;;;;;19.08;9.30;;;;;;;;;;5055213;28;20267;-72
2023/10/10 16:10:54;;;;;;;17.08;9.25;;;;;;;;;;5054142;28;20060;-71
2023/10/10 16:13:21;;;;;;;19.80;10.10;;;;;;;;;;5054721;28;20021;-72
2023/10/10 16:15:46;;;;;;;23.75;9.55;;;;;;;;;;5054572;28;20021;-73
2023/10/10 16:18:12;;;;;;;22.73;9.20;;;;;;;;;;5054878;28;20491;-72
2023/10/10 16:20:37;;;;;;;23.73;9.50;;;;;;;;;;5054769;28;20099;-73
2023/10/10 16:23:02;;;;;;;20.00;9.38;;;;;;;;;;5036744;28;20430;-73
2023/10/10 16:25:28;;;;;;;19.48;9.38;;;;;;;;;;5036873;28;20024;-72
2023/10/10 16:27:54;;;;;;;20.10;9.20;;;;;;;;;;5054768;28;20021;-72
2023/10/10 16:30:21;;;;;;;21.27;8.98;;;;;;;;;;5054685;28;20021;-72
2023/10/10 16:32:49;;;;;;;21.80;9.30;;;;;;;;;;5036794;28;20456;-73
2023/10/10 16:35:15;;;;;;;19.70;8.82;;;;;;;;;;5054517;28;20021;-72
2023/10/10 16:37:40;;;;;;;20.23;8.80;;;;;;;;;;5054450;28;20032;-73
2023/10/10 16:40:08;;;;;;;20.52;9.13;;;;;;;;;;5054698;28;20024;-73
2023/10/10 16:42:33;;;;;;;22.25;9.25;;;;;;;;;;5054640;28;20453;-72
2023/10/10 16:44:58;;;;;;;19.58;8.88;;;;;;;;;;5054392;28;20092;-72
2023/10/10 16:47:24;;;;;;;19.40;8.93;;;;;;;;;;5054346;28;20017;-72
2023/10/10 16:49:49;;;;;;;20.70;9.00;;;;;;;;;;5054397;28;20052;-72
2023/10/10 16:52:14;;;;;;;18.30;7.83;;;;;;;;;;5054533;28;20021;-72
2023/10/10 16:54:45;;;;;;;20.13;8.40;;;;;;;;;;5054083;28;20020;-72
2023/10/10 16:57:11;;;;;;;20.70;8.65;;;;;;;;;;5054127;28;20412;-73
2023/10/10 16:59:36;;;;;;;17.33;8.73;;;;;;;;;;5036223;28;20026;-73
2023/10/10 17:02:01;;;;;;;17.10;7.97;;;;;;;;;;5054100;28;20025;-73
2023/10/10 17:04:26;;;;;;;19.83;8.70;;;;;;;;;;5053686;28;20247;-72
2023/10/10 17:06:52;;;;;;;20.23;9.85;;;;;;;;;;5036027;28;20175;-72
2023/10/10 17:09:17;;;;;;;22.40;8.97;;;;;;;;;;5036155;28;20025;-73